createdAt,value
2023-02-18T00:02:12.985Z,100567.88
2023-02-18T00:05:15.673Z,100560.81
2023-02-18T00:08:18.118Z,100562.87
2023-02-18T00:11:22.110Z,100559.59
2023-02-18T00:14:24.469Z,100557.28
2023-02-18T00:17:26.862Z,100550.44
2023-02-18T00:20:29.817Z,100549.84
2023-02-18T00:23:32.369Z,100546.50
2023-02-18T00:26:35.863Z,100554.38
2023-02-18T00:29:38.409Z,100553.59
2023-02-18T00:32:40.759Z,100561.59
2023-02-18T00:35:43.121Z,100561.81
2023-02-18T00:38:54.379Z,100571.56
2023-02-18T00:41:57.136Z,100568.22
2023-02-18T00:44:59.418Z,100573.69
2023-02-18T00:48:01.754Z,100574.66
2023-02-18T00:51:07.475Z,100573.84
2023-02-18T00:54:10.035Z,100562.72
2023-02-18T00:57:12.317Z,100568.91
2023-02-18T01:00:15.430Z,100573.13
2023-02-18T01:03:18.156Z,100563.53
2023-02-18T01:06:22.361Z,100559.59
2023-02-18T01:09:26.031Z,100568.06
2023-02-18T01:12:28.414Z,100561.94
2023-02-18T01:15:31.064Z,100572.47
2023-02-18T01:18:34.206Z,100570.50
2023-02-18T01:21:36.683Z,100560.78
2023-02-18T01:24:38.957Z,100570.31
2023-02-18T01:27:42.027Z,100555.37
2023-02-18T01:30:44.817Z,100560.78
2023-02-18T01:33:47.291Z,100556.38
2023-02-18T01:36:49.679Z,100562.47
2023-02-18T01:39:52.055Z,100552.88
2023-02-18T01:42:54.907Z,100557.22
2023-02-18T01:46:13.807Z,100562.59
2023-02-18T01:49:31.093Z,100555.87
2023-02-18T01:52:33.591Z,100548.06
2023-02-18T01:55:37.286Z,100547.34
2023-02-18T01:58:39.898Z,100536.03
2023-02-18T02:01:45.186Z,100544.03
2023-02-18T02:04:48.792Z,100547.59
2023-02-18T02:08:10.973Z,100538.28
2023-02-18T02:11:32.668Z,100540.22
2023-02-18T02:15:06.582Z,100540.31
2023-02-18T02:18:33.746Z,100527.28
2023-02-18T02:21:54.166Z,100528.25
2023-02-18T02:24:59.584Z,100527.44
2023-02-18T02:28:23.834Z,100525.75
2023-02-18T02:31:51.496Z,100514.50
2023-02-18T02:35:15.243Z,100521.41
2023-02-18T02:38:43.691Z,100522.38
2023-02-18T02:41:58.569Z,100515.44
2023-02-18T02:45:17.409Z,100520.69
2023-02-18T02:48:46.236Z,100523.34
2023-02-18T02:52:06.117Z,100524.22
2023-02-18T02:55:12.338Z,100517.38
2023-02-18T02:58:19.908Z,100520.06
2023-02-18T03:01:28.400Z,100514.84
2023-02-18T03:04:53.128Z,100522.88
2023-02-18T03:08:05.485Z,100517.69
2023-02-18T03:11:11.463Z,100517.69
2023-02-18T03:14:43.633Z,100512.47
2023-02-18T03:17:45.956Z,100509.97
2023-02-18T03:21:00.506Z,100516.13
2023-02-18T03:24:11.497Z,100519.63
2023-02-18T03:27:33.552Z,100511.84
2023-02-18T03:30:49.349Z,100515.44
2023-02-18T03:34:05.343Z,100517.22
2023-02-18T03:37:10.149Z,100517.19
2023-02-18T03:40:13.272Z,100520.78
2023-02-18T03:43:15.886Z,100512.03
2023-02-18T03:46:18.739Z,100511.97
2023-02-18T03:49:21.175Z,100518.94
2023-02-18T03:52:23.603Z,100519.94
2023-02-18T03:55:25.903Z,100526.88
2023-02-18T03:58:28.337Z,100531.22
2023-02-18T04:01:31.152Z,100532.03
2023-02-18T04:04:33.621Z,100523.41
2023-02-18T04:07:36.061Z,100519.81
2023-02-18T04:10:38.568Z,100520.91
2023-02-18T04:13:41.023Z,100513.06
2023-02-18T04:16:43.629Z,100511.47
2023-02-18T04:19:45.921Z,100493.88
2023-02-18T04:22:48.551Z,100494.75
2023-02-18T04:25:51.121Z,100498.34
2023-02-18T04:28:53.544Z,100493.09
2023-02-18T04:31:56.292Z,100503.28
2023-02-18T04:34:58.635Z,100501.53
2023-02-18T04:38:00.931Z,100503.12
2023-02-18T04:41:03.294Z,100503.75
2023-02-18T04:44:05.870Z,100500.03
2023-02-18T04:47:08.509Z,100500.88
2023-02-18T04:50:11.831Z,100507.09
2023-02-18T04:53:16.217Z,100502.66
2023-02-18T04:56:18.805Z,100519.06
2023-02-18T04:59:21.316Z,100506.88
2023-02-18T05:02:23.800Z,100506.75
2023-02-18T05:05:26.053Z,100511.87
2023-02-18T05:08:28.543Z,100511.75
2023-02-18T05:11:30.933Z,100506.44
2023-02-18T05:14:33.284Z,100503.69
2023-02-18T05:17:35.966Z,100496.47
2023-02-18T05:20:38.485Z,100504.41
2023-02-18T05:23:40.849Z,100510.34
2023-02-18T05:26:43.219Z,100509.50
2023-02-18T05:29:46.710Z,100513.69
2023-02-18T05:32:49.079Z,100511.94
2023-02-18T05:35:51.597Z,100521.66
2023-02-18T05:38:54.428Z,100521.66
2023-02-18T05:41:56.837Z,100530.31
2023-02-18T05:44:59.745Z,100522.56
2023-02-18T05:48:02.163Z,100526.19
2023-02-18T05:51:04.696Z,100532.31
2023-02-18T05:54:07.231Z,100532.34
2023-02-18T05:57:09.606Z,100536.81
2023-02-18T06:00:12.958Z,100537.91
2023-02-18T06:03:15.283Z,100536.56
2023-02-18T06:06:17.615Z,100523.78
2023-02-18T06:09:20.124Z,100526.75
2023-02-18T06:12:22.440Z,100529.66
2023-02-18T06:15:24.844Z,100546.53
2023-02-18T06:18:27.483Z,100555.19
2023-02-18T06:21:29.981Z,100549.66
2023-02-18T06:24:32.418Z,100545.81
2023-02-18T06:27:34.748Z,100547.56
2023-02-18T06:30:39.619Z,100549.13
2023-02-18T06:33:41.892Z,100552.69
2023-02-18T06:36:44.262Z,100560.56
2023-02-18T06:39:46.788Z,100571.97
2023-02-18T06:42:49.124Z,100567.59
2023-02-18T06:45:51.965Z,100564.91
2023-02-18T06:48:54.326Z,100570.00
2023-02-18T06:51:56.909Z,100569.00
2023-02-18T06:54:59.437Z,100574.94
2023-02-18T06:58:01.749Z,100574.75
2023-02-18T07:01:04.683Z,100586.88
2023-02-18T07:04:07.134Z,100583.25
2023-02-18T07:07:12.384Z,100583.41
2023-02-18T07:10:21.673Z,100591.22
2023-02-18T07:13:26.535Z,100599.09
2023-02-18T07:16:29.320Z,100603.31
2023-02-18T07:19:31.789Z,100608.44
2023-02-18T07:22:35.608Z,100607.59
2023-02-18T07:25:38.658Z,100608.34
2023-02-18T07:28:41.926Z,100605.59
2023-02-18T07:31:44.553Z,100589.78
2023-02-18T07:34:46.910Z,100591.47
2023-02-18T07:37:50.540Z,100598.44
2023-02-18T07:40:54.014Z,100600.91
2023-02-18T07:43:56.520Z,100600.81
2023-02-18T07:46:58.977Z,100598.06
2023-02-18T07:50:01.371Z,100601.50
2023-02-18T07:53:05.333Z,100604.88
2023-02-18T07:56:08.412Z,100607.38
2023-02-18T07:59:11.936Z,100605.59
2023-02-18T08:02:24.047Z,100595.03
2023-02-18T08:05:26.391Z,100602.72
2023-02-18T08:08:30.796Z,100609.69
2023-02-18T08:11:34.124Z,100607.63
2023-02-18T08:14:36.468Z,100612.88
2023-02-18T08:17:38.847Z,100614.47
2023-02-18T08:20:41.309Z,100612.53
2023-02-18T08:23:44.487Z,100611.66
2023-02-18T08:26:59.914Z,100616.84
2023-02-18T08:30:03.838Z,100624.50
2023-02-18T08:33:06.270Z,100635.38
2023-02-18T08:36:10.604Z,100632.66
2023-02-18T08:39:13.179Z,100631.62
2023-02-18T08:42:15.806Z,100623.66
2023-02-18T08:45:18.137Z,100628.75
2023-02-18T08:48:20.804Z,100633.91
2023-02-18T08:51:24.116Z,100647.41
2023-02-18T08:54:26.405Z,100639.25
2023-02-18T08:57:29.184Z,100637.25
2023-02-18T09:00:32.191Z,100642.72
2023-02-18T09:03:35.057Z,100641.84
2023-02-18T09:06:38.840Z,100622.28
2023-02-18T09:09:42.244Z,100632.12
2023-02-18T09:12:44.829Z,100626.63
2023-02-18T09:15:55.718Z,100636.66
2023-02-18T09:18:59.094Z,100636.91
2023-02-18T09:22:01.510Z,100632.25
2023-02-18T09:25:04.548Z,100641.88
2023-02-18T09:28:06.920Z,100628.47
2023-02-18T09:31:16.585Z,100623.75
2023-02-18T09:34:19.157Z,100628.69
2023-02-18T09:37:21.453Z,100625.28
2023-02-18T09:40:32.573Z,100628.97
2023-02-18T09:43:42.945Z,100624.19
2023-02-18T09:47:02.641Z,100621.09
2023-02-18T09:50:29.281Z,100621.78
2023-02-18T09:53:31.657Z,100615.12
2023-02-18T09:56:39.640Z,100608.72
2023-02-18T09:59:44.506Z,100599.84
2023-02-18T10:02:58.160Z,100595.31
2023-02-18T10:06:25.769Z,100601.12
2023-02-18T10:09:41.704Z,100602.59
2023-02-18T10:12:45.166Z,100595.53
2023-02-18T10:15:49.169Z,100581.97
2023-02-18T10:19:01.327Z,100574.72
2023-02-18T10:22:06.983Z,100582.59
2023-02-18T10:25:09.612Z,100569.84
2023-02-18T10:28:13.308Z,100586.03
2023-02-18T10:31:23.933Z,100585.38
2023-02-18T10:34:44.600Z,100590.84
2023-02-18T10:38:22.166Z,100575.19
2023-02-18T10:42:03.216Z,100574.94
2023-02-18T10:45:13.728Z,100580.56
2023-02-18T10:49:01.037Z,100576.37
2023-02-18T10:52:07.111Z,100568.41
2023-02-18T10:55:19.226Z,100583.56
2023-02-18T10:58:26.599Z,100571.94
2023-02-18T11:01:29.655Z,100571.31
2023-02-18T11:04:39.763Z,100577.47
2023-02-18T11:07:48.991Z,100568.00
2023-02-18T11:10:51.886Z,100561.81
2023-02-18T11:14:05.607Z,100553.06
2023-02-18T11:17:14.936Z,100549.47
2023-02-18T11:20:32.289Z,100536.97
2023-02-18T11:23:47.828Z,100541.13
2023-02-18T11:26:50.213Z,100543.31
2023-02-18T11:29:56.258Z,100540.56
2023-02-18T11:33:03.625Z,100535.75
2023-02-18T11:36:29.603Z,100536.59
2023-02-18T11:39:32.617Z,100527.97
2023-02-18T11:42:35.018Z,100518.50
2023-02-18T11:45:37.436Z,100511.66
2023-02-18T11:48:39.858Z,100514.97
2023-02-18T11:51:43.365Z,100509.50
2023-02-18T11:55:02.284Z,100510.34
2023-02-18T11:58:07.310Z,100491.69
2023-02-18T12:01:20.910Z,100480.00
2023-02-18T12:04:37.621Z,100470.13
2023-02-18T12:07:45.538Z,100458.13
2023-02-18T12:10:51.782Z,100461.06
2023-02-18T12:13:57.124Z,100449.66
2023-02-18T12:17:33.742Z,100438.22
2023-02-18T12:21:02.121Z,100428.69
2023-02-18T12:24:17.555Z,100415.63
2023-02-18T12:27:37.132Z,100416.94
2023-02-18T12:30:54.755Z,100421.19
2023-02-18T12:34:22.953Z,100396.03
2023-02-18T12:37:43.819Z,100386.63
2023-02-18T12:40:56.430Z,100388.72
2023-02-18T12:44:29.814Z,100378.88
2023-02-18T12:47:44.776Z,100382.00
2023-02-18T12:50:56.470Z,100359.16
2023-02-18T12:54:36.712Z,100359.22
2023-02-18T12:58:01.967Z,100352.09
2023-02-18T13:01:33.154Z,100343.19
2023-02-18T13:04:50.528Z,100326.06
2023-02-18T13:08:12.191Z,100319.47
2023-02-18T13:11:22.827Z,100321.91
2023-02-18T13:14:34.157Z,100313.50
2023-02-18T13:17:39.743Z,100307.81
2023-02-18T13:21:05.556Z,100309.44
2023-02-18T13:24:13.274Z,100303.03
2023-02-18T13:27:34.020Z,100310.22
2023-02-18T13:31:02.550Z,100295.56
2023-02-18T13:34:33.562Z,100291.72
2023-02-18T13:37:57.851Z,100287.06
2023-02-18T13:41:01.546Z,100283.31
2023-02-18T13:44:27.878Z,100283.41
2023-02-18T13:47:52.282Z,100286.16
2023-02-18T13:51:00.850Z,100281.13
2023-02-18T13:54:12.026Z,100281.91
2023-02-18T13:57:22.454Z,100285.50
2023-02-18T14:00:36.307Z,100276.91
2023-02-18T14:03:55.285Z,100274.34
2023-02-18T14:07:33.379Z,100274.34
2023-02-18T14:10:37.746Z,100264.34
2023-02-18T14:13:50.806Z,100262.62
2023-02-18T14:17:21.125Z,100260.28
2023-02-18T14:20:28.516Z,100259.69
2023-02-18T14:23:37.651Z,100250.91
2023-02-18T14:26:45.857Z,100250.13
2023-02-18T14:29:52.522Z,100233.72
2023-02-18T14:33:00.126Z,100235.69
2023-02-18T14:36:40.485Z,100225.19
2023-02-18T14:39:56.015Z,100206.78
2023-02-18T14:43:14.724Z,100205.94
2023-02-18T14:46:34.703Z,100198.09
2023-02-18T14:49:45.016Z,100190.34
2023-02-18T14:52:54.044Z,100189.59
2023-02-18T14:56:05.912Z,100187.22
2023-02-18T14:59:09.459Z,100190.81
2023-02-18T15:02:25.580Z,100188.19
2023-02-18T15:05:31.678Z,100180.44
2023-02-18T15:08:40.334Z,100164.28
2023-02-18T15:11:48.150Z,100171.19
2023-02-18T15:14:56.808Z,100168.63
2023-02-18T15:18:00.362Z,100160.78
2023-02-18T15:21:06.829Z,100149.44
2023-02-18T15:24:19.011Z,100157.47
2023-02-18T15:27:29.099Z,100142.66
2023-02-18T15:30:37.020Z,100141.13
2023-02-18T15:33:44.721Z,100126.31
2023-02-18T15:36:51.238Z,100124.53
2023-02-18T15:39:54.383Z,100122.09
2023-02-18T15:43:02.408Z,100122.03
2023-02-18T15:46:13.381Z,100120.50
2023-02-18T15:49:23.112Z,100112.88
2023-02-18T15:52:34.811Z,100106.91
2023-02-18T15:55:40.700Z,100105.13
2023-02-18T15:58:44.315Z,100107.00
2023-02-18T16:01:56.180Z,100102.59
2023-02-18T16:05:01.420Z,100090.28
2023-02-18T16:08:23.137Z,100091.25
2023-02-18T16:11:31.833Z,100089.56
2023-02-18T16:14:48.657Z,100099.34
2023-02-18T16:17:51.586Z,100093.50
2023-02-18T16:20:59.190Z,100083.88
2023-02-18T16:24:04.651Z,100089.81
2023-02-18T16:27:14.980Z,100092.00
2023-02-18T16:30:24.553Z,100086.50
2023-02-18T16:33:27.647Z,100084.72
2023-02-18T16:36:30.050Z,100077.63
2023-02-18T16:39:35.554Z,100088.50
2023-02-18T16:42:39.986Z,100084.63
2023-02-18T16:45:49.253Z,100080.00
2023-02-18T16:48:56.022Z,100074.06
2023-02-18T16:52:06.842Z,100069.00
2023-02-18T16:55:32.862Z,100060.66
2023-02-18T16:58:37.994Z,100067.16
2023-02-18T17:01:56.847Z,100070.97
2023-02-18T17:05:01.484Z,100067.44
2023-02-18T17:08:23.821Z,100058.59
2023-02-18T17:11:31.376Z,100059.44
2023-02-18T17:14:37.108Z,100067.75
2023-02-18T17:17:40.852Z,100053.47
2023-02-18T17:20:45.077Z,100060.00
2023-02-18T17:23:51.251Z,100059.41
2023-02-18T17:26:55.001Z,100067.34
2023-02-18T17:29:57.911Z,100066.81
2023-02-18T17:33:03.457Z,100057.37
2023-02-18T17:36:07.465Z,100062.53
2023-02-18T17:39:15.474Z,100066.88
2023-02-18T17:42:19.426Z,100057.25
2023-02-18T17:45:29.300Z,100057.44
2023-02-18T17:48:33.475Z,100055.56
2023-02-18T17:51:38.777Z,100040.63
2023-02-18T17:54:49.709Z,100038.19
2023-02-18T17:57:55.936Z,100047.47
2023-02-18T18:00:59.765Z,100047.28
2023-02-18T18:04:04.699Z,100059.03
2023-02-18T18:07:08.236Z,100055.56
2023-02-18T18:10:17.982Z,100050.06
2023-02-18T18:13:36.175Z,100052.53
2023-02-18T18:16:48.413Z,100041.72
2023-02-18T18:19:52.375Z,100054.34
2023-02-18T18:22:59.886Z,100054.44
2023-02-18T18:26:05.743Z,100057.84
2023-02-18T18:29:09.251Z,100055.41
2023-02-18T18:32:13.025Z,100064.19
2023-02-18T18:35:32.449Z,100078.63
2023-02-18T18:38:36.099Z,100068.25
2023-02-18T18:41:40.234Z,100075.47
2023-02-18T18:44:45.221Z,100082.94
2023-02-18T18:47:52.549Z,100083.31
2023-02-18T18:51:00.307Z,100079.34
2023-02-18T18:54:03.895Z,100083.91
2023-02-18T18:57:10.111Z,100086.16
2023-02-18T19:00:15.440Z,100090.97
2023-02-18T19:03:21.337Z,100095.84
2023-02-18T19:06:25.181Z,100089.16
2023-02-18T19:09:31.930Z,100081.78
2023-02-18T19:12:37.868Z,100107.06
2023-02-18T19:15:41.886Z,100103.91
2023-02-18T19:18:47.362Z,100121.06
2023-02-18T19:21:51.652Z,100126.13
2023-02-18T19:24:57.551Z,100141.53
2023-02-18T19:28:03.361Z,100151.38
2023-02-18T19:31:11.263Z,100153.31
2023-02-18T19:34:17.917Z,100154.09
2023-02-18T19:37:23.404Z,100145.72
2023-02-18T19:40:32.354Z,100146.19
2023-02-18T19:43:37.904Z,100154.59
2023-02-18T19:46:42.838Z,100144.72
2023-02-18T19:49:47.528Z,100172.19
2023-02-18T19:53:00.614Z,100183.19
2023-02-18T19:56:10.202Z,100188.78
2023-02-18T19:59:15.287Z,100175.97
2023-02-18T20:02:22.157Z,100183.72
2023-02-18T20:05:28.183Z,100161.53
2023-02-18T20:08:36.968Z,100184.75
2023-02-18T20:11:40.756Z,100177.50
2023-02-18T20:14:44.973Z,100197.88
2023-02-18T20:17:48.305Z,100195.56
2023-02-18T20:20:54.785Z,100191.97
2023-02-18T20:23:58.906Z,100209.50
2023-02-18T20:27:03.537Z,100200.66
2023-02-18T20:30:09.727Z,100186.72
2023-02-18T20:33:16.152Z,100194.34
2023-02-18T20:36:21.167Z,100182.22
2023-02-18T20:39:24.858Z,100169.66
2023-02-18T20:42:28.480Z,100170.03
2023-02-18T20:45:34.192Z,100174.38
2023-02-18T20:48:38.746Z,100176.81
2023-02-18T20:51:48.386Z,100190.56
2023-02-18T20:54:54.331Z,100206.81
2023-02-18T20:57:59.608Z,100198.31
2023-02-18T21:01:04.615Z,100208.59
2023-02-18T21:04:09.343Z,100202.91
2023-02-18T21:07:13.142Z,100230.22
2023-02-18T21:10:17.444Z,100217.84
2023-02-18T21:13:21.916Z,100220.31
2023-02-18T21:16:28.862Z,100226.59
2023-02-18T21:19:32.972Z,100233.19
2023-02-18T21:22:37.776Z,100237.97
2023-02-18T21:25:40.955Z,100235.66
2023-02-18T21:28:48.612Z,100240.59
2023-02-18T21:31:53.154Z,100222.81
2023-02-18T21:34:58.550Z,100239.06
2023-02-18T21:38:01.818Z,100214.97
2023-02-18T21:41:06.637Z,100235.44
2023-02-18T21:44:11.824Z,100236.63
2023-02-18T21:47:15.136Z,100247.31
2023-02-18T21:50:27.994Z,100263.66
2023-02-18T21:53:31.502Z,100264.94
2023-02-18T21:56:36.017Z,100256.50
2023-02-18T21:59:40.139Z,100267.31
2023-02-18T22:02:43.299Z,100269.19
2023-02-18T22:05:46.234Z,100274.53
2023-02-18T22:08:49.342Z,100269.81
2023-02-18T22:11:52.235Z,100257.09
2023-02-18T22:14:54.663Z,100256.16
2023-02-18T22:17:56.932Z,100261.50
2023-02-18T22:20:59.642Z,100263.13
2023-02-18T22:24:02.203Z,100286.59
2023-02-18T22:27:04.706Z,100282.31
2023-02-18T22:30:07.583Z,100274.25
2023-02-18T22:33:10.086Z,100273.34
2023-02-18T22:36:12.423Z,100273.00
2023-02-18T22:39:15.523Z,100274.25
2023-02-18T22:42:17.949Z,100278.97
2023-02-18T22:45:20.277Z,100282.72
2023-02-18T22:48:22.628Z,100272.34
2023-02-18T22:51:31.454Z,100291.72
2023-02-18T22:54:33.758Z,100285.16
2023-02-18T22:57:36.065Z,100297.44
2023-02-18T23:00:38.596Z,100319.16
2023-02-18T23:03:40.906Z,100307.25
2023-02-18T23:06:45.388Z,100305.47
2023-02-18T23:09:47.742Z,100306.41
2023-02-18T23:12:50.163Z,100309.19
2023-02-18T23:16:00.721Z,100300.50
2023-02-18T23:19:03.130Z,100294.53
2023-02-18T23:22:06.464Z,100287.63
2023-02-18T23:25:09.052Z,100299.25
2023-02-18T23:28:11.333Z,100293.97
2023-02-18T23:31:16.062Z,100303.09
2023-02-18T23:34:18.538Z,100313.59
2023-02-18T23:37:43.411Z,100314.81
2023-02-18T23:40:47.463Z,100307.69
2023-02-18T23:43:50.514Z,100306.94
2023-02-18T23:46:53.046Z,100312.53
2023-02-18T23:49:55.644Z,100315.44
2023-02-18T23:52:58.058Z,100303.56
2023-02-18T23:56:06.862Z,100301.84
2023-02-18T23:59:11.776Z,100311.78
